createdAt,value
2022-09-15T00:01:27.821Z,17.80
2022-09-15T00:03:56.030Z,17.80
2022-09-15T00:06:24.108Z,17.90
2022-09-15T00:08:52.531Z,17.80
2022-09-15T00:11:25.301Z,17.80
2022-09-15T00:13:54.829Z,17.70
2022-09-15T00:16:25.624Z,17.70
2022-09-15T00:18:53.770Z,17.80
2022-09-15T00:21:23.651Z,17.70
2022-09-15T00:23:52.291Z,17.60
2022-09-15T00:26:23.785Z,17.60
2022-09-15T00:28:52.591Z,17.60
2022-09-15T00:31:23.091Z,17.70
2022-09-15T00:33:52.679Z,17.70
2022-09-15T00:36:22.162Z,17.70
2022-09-15T00:38:50.912Z,17.70
2022-09-15T00:41:22.881Z,17.80
2022-09-15T00:43:55.469Z,17.80
2022-09-15T00:46:25.891Z,17.70
2022-09-15T00:48:59.405Z,17.70
2022-09-15T00:51:34.883Z,17.60
2022-09-15T00:54:10.582Z,17.50
2022-09-15T00:56:42.648Z,17.40
2022-09-15T00:59:14.514Z,17.40
2022-09-15T01:01:45.766Z,17.40
2022-09-15T01:04:15.070Z,17.40
2022-09-15T01:06:47.947Z,17.40
2022-09-15T01:09:20.339Z,17.40
2022-09-15T01:11:49.891Z,17.50
2022-09-15T01:14:18.134Z,17.40
2022-09-15T01:16:54.553Z,16.30
2022-09-15T01:20:06.142Z,17.30
2022-09-15T01:22:41.870Z,17.30
2022-09-15T01:25:15.296Z,17.20
2022-09-15T01:28:24.165Z,17.20
2022-09-15T01:31:01.464Z,17.20
2022-09-15T01:33:34.237Z,17.30
2022-09-15T01:36:11.618Z,17.30
2022-09-15T01:38:48.078Z,17.50
2022-09-15T01:41:19.173Z,17.30
2022-09-15T01:43:52.701Z,17.30
2022-09-15T01:46:25.262Z,17.30
2022-09-15T01:48:56.728Z,17.40
2022-09-15T01:51:26.715Z,17.40
2022-09-15T01:53:55.979Z,17.40
2022-09-15T01:56:24.234Z,17.40
2022-09-15T01:58:52.457Z,17.50
2022-09-15T02:01:29.700Z,17.40
2022-09-15T02:04:02.143Z,17.40
2022-09-15T02:06:37.362Z,17.40
2022-09-15T02:09:13.447Z,17.40
2022-09-15T02:11:52.191Z,17.40
2022-09-15T02:14:36.737Z,17.40
2022-09-15T02:17:14.404Z,17.40
2022-09-15T02:19:48.660Z,17.30
2022-09-15T02:22:23.378Z,17.20
2022-09-15T02:24:58.909Z,17.10
2022-09-15T02:27:31.161Z,17.10
2022-09-15T02:30:06.003Z,17.10
2022-09-15T02:32:37.986Z,17.10
2022-09-15T02:35:09.095Z,17.00
2022-09-15T02:37:38.237Z,16.90
2022-09-15T02:40:07.874Z,16.80
2022-09-15T02:42:36.678Z,16.70
2022-09-15T02:45:06.137Z,16.60
2022-09-15T02:47:35.742Z,16.60
2022-09-15T02:50:04.049Z,16.60
2022-09-15T02:52:32.492Z,16.60
2022-09-15T02:55:01.468Z,16.40
2022-09-15T02:57:29.674Z,16.50
2022-09-15T03:00:16.343Z,16.40
2022-09-15T03:02:49.956Z,16.40
2022-09-15T03:05:20.050Z,16.40
2022-09-15T03:07:49.065Z,16.30
2022-09-15T03:10:17.629Z,16.30
2022-09-15T03:12:47.283Z,16.20
2022-09-15T03:15:17.546Z,16.20
2022-09-15T03:17:48.842Z,16.10
2022-09-15T03:20:21.415Z,16.10
2022-09-15T03:22:50.764Z,16.00
2022-09-15T03:25:19.682Z,16.00
2022-09-15T03:27:50.232Z,16.00
2022-09-15T03:30:18.879Z,15.90
2022-09-15T03:32:48.732Z,15.80
2022-09-15T03:35:17.118Z,15.80
2022-09-15T03:37:45.843Z,15.80
2022-09-15T03:40:14.468Z,15.80
2022-09-15T03:42:42.733Z,15.80
2022-09-15T03:45:11.392Z,15.80
2022-09-15T03:47:41.723Z,15.80
2022-09-15T03:50:11.674Z,15.70
2022-09-15T03:52:39.937Z,15.70
2022-09-15T03:55:08.899Z,15.60
2022-09-15T03:57:37.037Z,15.60
2022-09-15T04:00:08.013Z,15.60
2022-09-15T04:02:36.334Z,15.60
2022-09-15T04:05:04.818Z,15.50
2022-09-15T04:07:34.769Z,15.50
2022-09-15T04:10:04.199Z,15.40
2022-09-15T04:12:35.247Z,15.40
2022-09-15T04:15:06.773Z,15.40
2022-09-15T04:17:34.944Z,15.40
2022-09-15T04:20:03.512Z,15.40
2022-09-15T04:22:32.214Z,15.50
2022-09-15T04:25:01.796Z,15.50
2022-09-15T04:27:34.431Z,15.50
2022-09-15T04:30:02.895Z,15.50
2022-09-15T04:32:31.465Z,15.50
2022-09-15T04:34:59.575Z,15.50
2022-09-15T04:37:29.901Z,15.50
2022-09-15T04:39:58.152Z,15.50
2022-09-15T04:42:27.877Z,15.60
2022-09-15T04:44:56.066Z,15.50
2022-09-15T04:47:24.145Z,15.50
2022-09-15T04:49:52.390Z,15.60
2022-09-15T04:52:20.460Z,15.50
2022-09-15T04:54:50.785Z,15.50
2022-09-15T04:57:18.986Z,15.50
2022-09-15T05:02:17.185Z,15.60
2022-09-15T05:04:51.504Z,15.60
2022-09-15T05:07:20.012Z,15.70
2022-09-15T05:09:48.295Z,15.60
2022-09-15T05:12:17.443Z,15.60
2022-09-15T05:14:46.124Z,15.50
2022-09-15T05:17:17.767Z,15.40
2022-09-15T05:19:48.665Z,15.40
2022-09-15T05:22:19.159Z,15.50
2022-09-15T05:24:47.344Z,15.30
2022-09-15T05:27:15.438Z,15.30
2022-09-15T05:29:43.592Z,15.30
2022-09-15T05:32:14.427Z,15.30
2022-09-15T05:34:44.264Z,15.50
2022-09-15T05:37:19.926Z,15.40
2022-09-15T05:39:48.920Z,15.30
2022-09-15T05:42:17.151Z,15.40
2022-09-15T05:44:48.053Z,15.40
2022-09-15T05:47:16.801Z,15.40
2022-09-15T05:49:49.043Z,15.40
2022-09-15T05:52:20.138Z,15.50
2022-09-15T05:54:48.349Z,15.60
2022-09-15T05:57:19.069Z,15.60
2022-09-15T05:59:47.529Z,15.60
2022-09-15T06:02:15.844Z,15.60
2022-09-15T06:04:45.327Z,15.70
2022-09-15T06:07:14.820Z,15.70
2022-09-15T06:09:43.122Z,15.70
2022-09-15T06:12:20.780Z,16.00
2022-09-15T06:14:52.847Z,15.90
2022-09-15T06:17:22.170Z,15.90
2022-09-15T06:19:50.502Z,15.80
2022-09-15T06:22:20.161Z,15.70
2022-09-15T06:24:48.441Z,15.80
2022-09-15T06:27:16.904Z,15.70
2022-09-15T06:29:47.366Z,15.60
2022-09-15T06:32:15.664Z,15.60
2022-09-15T06:34:43.921Z,15.70
2022-09-15T06:37:12.325Z,15.70
2022-09-15T06:39:43.430Z,15.70
2022-09-15T06:42:13.802Z,15.70
2022-09-15T06:44:43.165Z,15.70
2022-09-15T06:47:11.398Z,15.80
2022-09-15T06:49:39.721Z,15.80
2022-09-15T06:52:07.982Z,15.80
2022-09-15T06:54:36.245Z,15.60
2022-09-15T06:57:05.970Z,15.60
2022-09-15T06:59:34.110Z,15.60
2022-09-15T07:02:05.123Z,15.50
2022-09-15T07:04:36.927Z,15.50
2022-09-15T07:07:05.329Z,15.70
2022-09-15T07:09:33.485Z,15.60
2022-09-15T07:12:05.824Z,15.70
2022-09-15T07:14:34.091Z,15.60
2022-09-15T07:17:02.967Z,15.60
2022-09-15T07:19:31.092Z,15.80
2022-09-15T07:22:09.717Z,15.80
2022-09-15T07:24:37.915Z,15.90
2022-09-15T07:27:09.242Z,15.90
2022-09-15T07:29:38.945Z,16.00
2022-09-15T07:32:07.101Z,16.10
2022-09-15T07:34:35.392Z,16.10
2022-09-15T07:37:03.917Z,16.10
2022-09-15T07:39:33.139Z,16.00
2022-09-15T07:42:01.249Z,16.10
2022-09-15T07:44:31.066Z,16.00
2022-09-15T07:46:59.495Z,15.80
2022-09-15T07:49:27.672Z,15.90
2022-09-15T07:51:55.904Z,16.00
2022-09-15T07:54:24.084Z,16.10
2022-09-15T07:56:52.665Z,16.20
2022-09-15T07:59:23.947Z,16.20
2022-09-15T08:01:53.897Z,16.30
2022-09-15T08:04:36.108Z,16.00
2022-09-15T08:07:04.896Z,15.80
2022-09-15T08:09:33.498Z,15.60
2022-09-15T08:12:03.446Z,15.50
2022-09-15T08:17:08.130Z,15.70
2022-09-15T08:19:39.281Z,15.70
2022-09-15T08:22:07.742Z,15.80
2022-09-15T08:24:37.351Z,15.70
2022-09-15T08:27:05.760Z,15.90
2022-09-15T08:29:34.096Z,16.00
2022-09-15T08:32:04.079Z,16.10
2022-09-15T08:34:32.490Z,16.40
2022-09-15T08:37:00.821Z,16.50
2022-09-15T08:41:57.599Z,16.20
2022-09-15T08:44:37.422Z,15.90
2022-09-15T08:47:12.961Z,15.90
2022-09-15T08:49:52.057Z,16.00
2022-09-15T08:52:28.280Z,16.20
2022-09-15T08:54:59.722Z,16.30
2022-09-15T08:57:35.495Z,16.60
2022-09-15T09:00:04.365Z,16.80
2022-09-15T09:03:08.599Z,17.30
2022-09-15T09:05:49.692Z,17.50
2022-09-15T09:08:47.124Z,17.30
2022-09-15T09:11:25.744Z,17.00
2022-09-15T09:14:03.809Z,16.90
2022-09-15T09:16:56.002Z,16.60
2022-09-15T09:19:39.497Z,16.70
2022-09-15T09:22:12.610Z,16.80
2022-09-15T09:24:45.512Z,17.00
2022-09-15T09:27:15.113Z,17.40
2022-09-15T09:29:49.673Z,17.70
2022-09-15T09:32:22.023Z,18.10
2022-09-15T09:35:00.665Z,17.70
2022-09-15T09:37:29.294Z,17.70
2022-09-15T09:39:57.575Z,17.60
2022-09-15T09:42:30.613Z,17.50
2022-09-15T09:44:59.043Z,17.70
2022-09-15T09:47:29.918Z,18.20
2022-09-15T09:49:59.915Z,18.90
2022-09-15T09:52:35.986Z,18.80
2022-09-15T09:55:16.887Z,18.50
2022-09-15T09:57:48.497Z,18.30
2022-09-15T10:00:33.320Z,18.70
2022-09-15T10:03:11.870Z,19.00
2022-09-15T10:05:42.059Z,19.10
2022-09-15T10:08:17.807Z,19.00
2022-09-15T10:10:52.488Z,19.00
2022-09-15T10:13:22.972Z,19.20
2022-09-15T10:15:56.547Z,18.90
2022-09-15T10:18:34.716Z,19.10
2022-09-15T10:21:10.426Z,19.20
2022-09-15T10:23:38.897Z,18.60
2022-09-15T10:26:32.251Z,18.40
2022-09-15T10:29:15.821Z,18.30
2022-09-15T10:31:45.061Z,18.20
2022-09-15T10:34:34.057Z,18.20
2022-09-15T10:37:09.344Z,18.40
2022-09-15T10:39:48.280Z,18.10
2022-09-15T10:42:25.272Z,18.10
2022-09-15T10:45:05.550Z,18.30
2022-09-15T10:47:49.824Z,18.00
2022-09-15T10:50:26.646Z,18.00
2022-09-15T10:53:10.522Z,18.10
2022-09-15T10:55:53.041Z,18.00
2022-09-15T10:58:39.876Z,18.10
2022-09-15T11:01:29.528Z,18.30
2022-09-15T11:04:26.266Z,18.20
2022-09-15T11:07:04.878Z,18.20
2022-09-15T11:09:43.070Z,18.00
2022-09-15T11:12:29.676Z,18.10
2022-09-15T11:15:12.428Z,18.00
2022-09-15T11:17:50.304Z,18.10
2022-09-15T11:20:31.366Z,18.10
2022-09-15T11:23:05.497Z,18.40
2022-09-15T11:25:43.808Z,18.70
2022-09-15T11:28:18.605Z,18.80
2022-09-15T11:30:54.495Z,19.00
2022-09-15T11:33:37.167Z,18.80
2022-09-15T11:36:18.444Z,18.80
2022-09-15T11:38:54.071Z,18.90
2022-09-15T11:41:31.686Z,19.00
2022-09-15T11:44:08.456Z,19.30
2022-09-15T11:46:52.228Z,19.40
2022-09-15T11:49:24.226Z,18.90
2022-09-15T11:51:57.780Z,18.80
2022-09-15T11:54:37.027Z,18.70
2022-09-15T11:57:08.315Z,18.90
2022-09-15T11:59:45.472Z,19.10
2022-09-15T12:02:27.308Z,19.30
2022-09-15T12:05:08.205Z,19.40
2022-09-15T12:07:42.420Z,19.30
2022-09-15T12:10:19.015Z,19.00
2022-09-15T12:12:51.494Z,18.90
2022-09-15T12:15:27.335Z,18.60
2022-09-15T12:18:27.344Z,18.40
2022-09-15T12:21:00.943Z,18.50
2022-09-15T12:23:34.749Z,18.60
2022-09-15T12:26:16.224Z,18.50
2022-09-15T12:28:57.353Z,18.40
2022-09-15T12:31:34.870Z,18.30
2022-09-15T12:34:05.235Z,18.40
2022-09-15T12:36:52.913Z,18.50
2022-09-15T12:39:31.317Z,18.50
2022-09-15T12:42:15.363Z,18.80
2022-09-15T12:44:48.988Z,18.80
2022-09-15T12:47:32.809Z,18.80
2022-09-15T12:50:08.302Z,18.70
2022-09-15T12:52:45.535Z,18.70
2022-09-15T12:55:21.082Z,18.90
2022-09-15T12:57:55.580Z,18.70
2022-09-15T13:00:45.555Z,18.70
2022-09-15T13:03:51.175Z,18.70
2022-09-15T13:06:25.911Z,19.00
2022-09-15T13:08:56.431Z,18.90
2022-09-15T13:11:40.471Z,18.90
2022-09-15T13:14:22.068Z,19.10
2022-09-15T13:16:57.189Z,19.00
2022-09-15T13:19:31.052Z,19.20
2022-09-15T13:22:06.247Z,19.20
2022-09-15T13:24:47.640Z,19.40
2022-09-15T13:27:20.393Z,19.20
2022-09-15T13:29:52.186Z,19.50
2022-09-15T13:32:39.834Z,19.50
2022-09-15T13:35:33.841Z,19.60
2022-09-15T13:38:40.809Z,19.40
2022-09-15T13:41:55.395Z,19.20
2022-09-15T13:44:54.918Z,19.00
2022-09-15T13:47:38.122Z,19.00
2022-09-15T13:50:18.321Z,19.10
2022-09-15T13:53:21.898Z,19.00
2022-09-15T13:55:54.650Z,19.00
2022-09-15T14:01:15.415Z,18.70
2022-09-15T14:03:47.639Z,18.90
2022-09-15T14:06:23.132Z,18.90
2022-09-15T14:08:55.885Z,18.70
2022-09-15T14:11:29.874Z,18.70
2022-09-15T14:14:00.772Z,18.90
2022-09-15T14:16:35.898Z,18.90
2022-09-15T14:19:25.827Z,19.20
2022-09-15T14:21:58.251Z,19.30
2022-09-15T14:24:32.027Z,19.20
2022-09-15T14:27:10.423Z,19.10
2022-09-15T14:29:43.311Z,19.20
2022-09-15T14:32:17.392Z,19.30
2022-09-15T14:37:21.928Z,19.50
2022-09-15T14:42:23.516Z,19.50
2022-09-15T14:47:43.525Z,19.40
2022-09-15T14:50:16.704Z,19.10
2022-09-15T14:52:55.137Z,19.00
2022-09-15T14:55:31.686Z,18.90
2022-09-15T14:58:14.996Z,19.00
2022-09-15T15:00:51.105Z,19.20
2022-09-15T15:03:25.890Z,19.30
2022-09-15T15:06:02.714Z,19.50
2022-09-15T15:08:42.154Z,19.20
2022-09-15T15:11:14.196Z,17.40
2022-09-15T15:13:48.306Z,19.10
2022-09-15T15:16:24.058Z,19.00
2022-09-15T15:18:54.201Z,18.60
2022-09-15T15:21:40.218Z,18.60
2022-09-15T15:24:19.286Z,18.90
2022-09-15T15:26:49.092Z,18.70
2022-09-15T15:29:40.915Z,18.80
2022-09-15T15:32:13.637Z,18.80
2022-09-15T15:34:53.066Z,19.10
2022-09-15T15:37:27.855Z,19.40
2022-09-15T15:39:57.391Z,19.60
2022-09-15T15:42:28.751Z,19.80
2022-09-15T15:45:03.703Z,19.90
2022-09-15T15:47:34.375Z,19.90
2022-09-15T15:50:14.390Z,20.00
2022-09-15T15:52:43.797Z,20.00
2022-09-15T15:55:15.981Z,19.70
2022-09-15T15:57:44.730Z,19.50
2022-09-15T16:00:21.752Z,19.50
2022-09-15T16:02:51.560Z,19.50
2022-09-15T16:05:22.680Z,19.20
2022-09-15T16:07:52.919Z,18.90
2022-09-15T16:10:24.907Z,18.90
2022-09-15T16:12:53.208Z,18.90
2022-09-15T16:15:23.269Z,19.00
2022-09-15T16:17:51.919Z,18.90
2022-09-15T16:20:23.501Z,18.90
2022-09-15T16:22:52.276Z,18.90
2022-09-15T16:25:30.199Z,18.90
2022-09-15T16:28:03.026Z,19.00
2022-09-15T16:30:35.739Z,19.00
2022-09-15T16:33:05.632Z,18.90
2022-09-15T16:35:39.437Z,18.80
2022-09-15T16:38:08.253Z,18.70
2022-09-15T16:40:37.627Z,18.60
2022-09-15T16:45:40.746Z,18.60
2022-09-15T16:48:11.275Z,18.60
2022-09-15T16:50:50.299Z,18.60
2022-09-15T16:53:31.069Z,18.60
2022-09-15T16:58:30.067Z,18.70
2022-09-15T17:05:59.503Z,18.60
2022-09-15T17:08:30.259Z,18.60
2022-09-15T17:11:04.645Z,18.50
2022-09-15T17:13:35.585Z,18.40
2022-09-15T17:16:05.938Z,18.60
2022-09-15T17:18:35.725Z,18.30
2022-09-15T17:21:04.369Z,18.30
2022-09-15T17:23:38.259Z,18.10
2022-09-15T17:26:11.921Z,18.10
2022-09-15T17:28:41.479Z,18.00
2022-09-15T17:31:17.534Z,18.10
2022-09-15T17:38:48.974Z,18.10
2022-09-15T17:43:48.258Z,17.80
2022-09-15T17:46:18.144Z,17.80
2022-09-15T17:48:46.631Z,17.80
2022-09-15T17:51:17.302Z,17.80
2022-09-15T17:53:46.993Z,17.80
2022-09-15T17:56:15.358Z,17.60
2022-09-15T17:58:43.986Z,17.40
2022-09-15T18:01:14.482Z,17.30
2022-09-15T18:03:46.034Z,17.00
2022-09-15T18:06:14.472Z,17.40
2022-09-15T18:08:43.213Z,16.90
2022-09-15T18:11:15.121Z,16.80
2022-09-15T18:13:43.711Z,16.80
2022-09-15T18:16:14.837Z,16.80
2022-09-15T18:18:44.976Z,16.80
2022-09-15T18:21:28.837Z,16.80
2022-09-15T18:23:58.932Z,16.70
2022-09-15T18:38:58.623Z,16.30
2022-09-15T18:41:28.087Z,16.30
2022-09-15T18:56:54.701Z,16.40
2022-09-15T19:07:15.576Z,16.60
2022-09-15T19:17:22.656Z,16.70
2022-09-15T19:22:23.800Z,16.80
2022-09-15T19:24:54.369Z,16.80
2022-09-15T19:27:22.936Z,16.80
2022-09-15T19:32:25.287Z,16.80
2022-09-15T19:37:31.630Z,16.80
2022-09-15T19:40:00.384Z,16.80
2022-09-15T19:42:41.916Z,16.70
2022-09-15T19:45:12.660Z,16.80
2022-09-15T19:47:42.306Z,16.70
2022-09-15T19:52:45.128Z,16.60
2022-09-15T19:55:18.723Z,16.60
2022-09-15T19:57:48.674Z,16.60
2022-09-15T20:00:20.201Z,16.50
2022-09-15T20:05:39.721Z,16.40
2022-09-15T20:08:09.268Z,16.40
2022-09-15T20:10:41.733Z,16.40
2022-09-15T20:13:11.446Z,16.30
2022-09-15T20:15:42.436Z,16.40
2022-09-15T20:18:13.499Z,16.30
2022-09-15T20:23:12.201Z,16.30
2022-09-15T20:25:41.863Z,16.20
2022-09-15T20:28:13.337Z,16.20
2022-09-15T20:30:42.080Z,16.20
2022-09-15T20:33:14.612Z,16.00
2022-09-15T20:35:48.270Z,15.60
2022-09-15T20:38:16.978Z,15.60
2022-09-15T20:40:45.410Z,15.70
2022-09-15T20:43:16.250Z,15.70
2022-09-15T20:45:44.890Z,15.70
2022-09-15T20:48:13.261Z,15.80
2022-09-15T20:50:41.633Z,15.80
2022-09-15T20:53:11.458Z,15.90
2022-09-15T20:55:39.824Z,16.00
2022-09-15T20:58:10.406Z,16.00
2022-09-15T21:00:39.000Z,16.00
2022-09-15T21:03:07.206Z,16.00
2022-09-15T21:05:38.079Z,16.00
2022-09-15T21:08:10.900Z,16.00
2022-09-15T21:10:40.338Z,15.90
2022-09-15T21:13:09.181Z,15.90
2022-09-15T21:15:37.592Z,15.80
2022-09-15T21:18:06.201Z,15.80
2022-09-15T21:20:34.977Z,15.80
2022-09-15T21:23:05.284Z,15.90
2022-09-15T21:25:35.585Z,15.90
2022-09-15T21:28:04.197Z,15.80
2022-09-15T21:30:32.816Z,15.80
2022-09-15T21:33:02.152Z,15.70
2022-09-15T21:35:32.657Z,15.80
2022-09-15T21:38:00.949Z,15.60
2022-09-15T21:40:29.396Z,15.60
2022-09-15T21:42:59.077Z,15.60
2022-09-15T21:45:27.322Z,15.50
2022-09-15T21:50:24.620Z,15.50
2022-09-15T21:55:22.971Z,15.40
2022-09-15T21:57:51.128Z,15.50
2022-09-15T22:00:21.077Z,15.40
2022-09-15T22:02:52.731Z,15.50
2022-09-15T22:05:20.879Z,15.50
2022-09-15T22:07:50.251Z,15.50
2022-09-15T22:10:18.853Z,15.40
2022-09-15T22:12:49.033Z,15.40
2022-09-15T22:15:20.979Z,15.40
2022-09-15T22:17:51.643Z,15.40
2022-09-15T22:20:19.881Z,15.40
2022-09-15T22:22:47.981Z,15.40
2022-09-15T22:25:21.138Z,15.40
2022-09-15T22:27:50.071Z,15.50
2022-09-15T22:30:18.470Z,15.40
2022-09-15T22:32:48.264Z,15.40
2022-09-15T22:35:17.353Z,15.60
2022-09-15T22:37:45.558Z,15.30
2022-09-15T22:40:13.647Z,15.40
2022-09-15T22:42:41.748Z,15.30
2022-09-15T22:45:11.613Z,15.10
2022-09-15T22:50:09.978Z,15.40
2022-09-15T22:52:38.072Z,15.50
2022-09-15T22:55:07.251Z,15.50
2022-09-15T22:57:39.608Z,15.50
2022-09-15T23:00:09.264Z,15.40
2022-09-15T23:02:37.534Z,15.40
2022-09-15T23:05:07.523Z,15.40
2022-09-15T23:07:37.128Z,15.40
2022-09-15T23:10:07.887Z,15.40
2022-09-15T23:12:36.177Z,15.30
2022-09-15T23:15:05.029Z,15.30
2022-09-15T23:17:34.262Z,15.30
2022-09-15T23:20:03.149Z,15.30
2022-09-15T23:22:31.576Z,15.30
2022-09-15T23:25:01.300Z,15.30
2022-09-15T23:27:29.512Z,15.30
2022-09-15T23:30:01.740Z,15.30
2022-09-15T23:32:30.529Z,15.20
2022-09-15T23:35:01.267Z,15.30
2022-09-15T23:37:30.368Z,15.30
2022-09-15T23:40:00.181Z,15.30
2022-09-15T23:42:28.419Z,15.50
2022-09-15T23:44:56.550Z,15.20
2022-09-15T23:47:24.800Z,15.20
2022-09-15T23:49:52.981Z,15.30
2022-09-15T23:52:21.122Z,15.30
2022-09-15T23:54:49.253Z,15.40
2022-09-15T23:57:19.347Z,15.30
2022-09-15T23:59:47.969Z,15.30
